createdAt,value
2023-04-08T00:00:57.596Z,1010.52
2023-04-08T00:01:57.762Z,1010.55
2023-04-08T00:02:57.540Z,1010.49
2023-04-08T00:03:57.784Z,1010.56
2023-04-08T00:04:57.673Z,1010.53
2023-04-08T00:05:57.798Z,1010.55
2023-04-08T00:06:57.807Z,1010.54
2023-04-08T00:07:57.809Z,1010.62
2023-04-08T00:08:57.838Z,1010.62
2023-04-08T00:09:57.814Z,1010.49
2023-04-08T00:10:58.028Z,1010.54
2023-04-08T00:11:58.055Z,1010.53
2023-04-08T00:12:58.052Z,1010.52
2023-04-08T00:13:58.257Z,1010.51
2023-04-08T00:14:57.386Z,1010.47
2023-04-08T00:15:57.438Z,1010.51
2023-04-08T00:16:57.526Z,1010.52
2023-04-08T00:17:57.605Z,1010.54
2023-04-08T00:18:57.567Z,1010.49
2023-04-08T00:19:57.617Z,1010.53
2023-04-08T00:20:57.667Z,1010.55
2023-04-08T00:21:57.345Z,1010.55
2023-04-08T00:22:57.327Z,1010.56
2023-04-08T00:23:57.353Z,1010.55
2023-04-08T00:24:57.320Z,1010.49
2023-04-08T00:25:57.343Z,1010.49
2023-04-08T00:26:57.312Z,1010.53
2023-04-08T00:27:57.296Z,1010.50
2023-04-08T00:28:57.292Z,1010.54
2023-04-08T00:29:57.283Z,1010.58
2023-04-08T00:30:58.178Z,1010.59
2023-04-08T00:31:57.358Z,1010.62
2023-04-08T00:32:57.286Z,1010.56
2023-04-08T00:33:57.265Z,1010.59
2023-04-08T00:34:57.258Z,1010.63
2023-04-08T00:35:57.298Z,1010.63
2023-04-08T00:36:57.238Z,1010.58
2023-04-08T00:37:57.237Z,1010.61
2023-04-08T00:38:57.230Z,1010.63
2023-04-08T00:39:57.223Z,1010.59
2023-04-08T00:40:57.227Z,1010.60
2023-04-08T00:41:57.205Z,1010.59
2023-04-08T00:42:57.205Z,1010.60
2023-04-08T00:43:57.215Z,1010.60
2023-04-08T00:44:57.181Z,1010.62
2023-04-08T00:45:57.209Z,1010.58
2023-04-08T00:46:57.186Z,1010.61
2023-04-08T00:47:57.217Z,1010.61
2023-04-08T00:48:57.245Z,1010.56
2023-04-08T00:49:57.263Z,1010.61
2023-04-08T00:50:57.256Z,1010.62
2023-04-08T00:51:57.157Z,1010.67
2023-04-08T00:52:57.135Z,1010.63
2023-04-08T00:53:57.137Z,1010.69
2023-04-08T00:54:57.124Z,1010.73
2023-04-08T00:55:57.320Z,1010.72
2023-04-08T00:56:57.113Z,1010.72
2023-04-08T00:57:57.103Z,1010.71
2023-04-08T00:58:57.116Z,1010.73
2023-04-08T00:59:57.352Z,1010.80
2023-04-08T01:00:57.081Z,1010.74
2023-04-08T01:01:57.168Z,1010.75
2023-04-08T01:02:57.688Z,1010.75
2023-04-08T01:03:57.181Z,1010.81
2023-04-08T01:04:57.085Z,1010.87
2023-04-08T01:05:57.077Z,1010.91
2023-04-08T01:06:57.102Z,1010.91
2023-04-08T01:07:57.069Z,1010.92
2023-04-08T01:08:57.031Z,1010.89
2023-04-08T01:09:57.087Z,1010.92
2023-04-08T01:10:57.012Z,1010.88
2023-04-08T01:11:57.028Z,1010.89
2023-04-08T01:12:57.003Z,1010.91
2023-04-08T01:13:57.007Z,1010.90
2023-04-08T01:14:57.000Z,1010.82
2023-04-08T01:15:57.050Z,1010.79
2023-04-08T01:16:57.597Z,1010.83
2023-04-08T01:17:57.060Z,1010.83
2023-04-08T01:18:56.962Z,1010.82
2023-04-08T01:19:56.958Z,1010.78
2023-04-08T01:20:56.945Z,1010.77
2023-04-08T01:21:57.046Z,1010.84
2023-04-08T01:22:57.666Z,1010.80
2023-04-08T01:23:56.946Z,1010.86
2023-04-08T01:24:56.952Z,1010.85
2023-04-08T01:25:56.919Z,1010.90
2023-04-08T01:26:56.945Z,1010.79
2023-04-08T01:27:56.946Z,1010.80
2023-04-08T01:28:56.926Z,1010.79
2023-04-08T01:29:57.099Z,1010.76
2023-04-08T01:30:57.121Z,1010.72
2023-04-08T01:31:57.180Z,1010.74
2023-04-08T01:32:57.140Z,1010.77
2023-04-08T01:33:57.334Z,1010.76
2023-04-08T01:34:57.340Z,1010.75
2023-04-08T01:35:57.451Z,1010.73
2023-04-08T01:36:58.418Z,1010.72
2023-04-08T01:37:57.572Z,1010.77
2023-04-08T01:38:57.566Z,1010.84
2023-04-08T01:39:57.474Z,1010.75
2023-04-08T01:40:57.175Z,1010.84
2023-04-08T01:41:57.056Z,1010.81
2023-04-08T01:42:56.835Z,1010.89
2023-04-08T01:43:56.857Z,1010.87
2023-04-08T01:44:56.856Z,1010.95
2023-04-08T01:45:56.898Z,1010.90
2023-04-08T01:46:56.993Z,1010.90
2023-04-08T01:47:56.850Z,1010.84
2023-04-08T01:48:56.825Z,1010.89
2023-04-08T01:49:56.832Z,1010.92
2023-04-08T01:50:56.756Z,1010.93
2023-04-08T01:51:56.770Z,1010.95
2023-04-08T01:52:56.741Z,1010.98
2023-04-08T01:53:56.860Z,1011.01
2023-04-08T01:54:56.725Z,1011.03
2023-04-08T01:55:56.721Z,1010.99
2023-04-08T01:56:56.838Z,1011.01
2023-04-08T01:57:56.836Z,1011.01
2023-04-08T01:58:56.901Z,1011.00
2023-04-08T01:59:56.700Z,1011.06
2023-04-08T02:00:56.697Z,1011.04
2023-04-08T02:01:56.814Z,1011.05
2023-04-08T02:02:56.923Z,1011.09
2023-04-08T02:03:56.807Z,1011.09
2023-04-08T02:04:56.665Z,1011.13
2023-04-08T02:05:56.664Z,1011.05
2023-04-08T02:06:56.659Z,1011.01
2023-04-08T02:07:56.655Z,1011.07
2023-04-08T02:08:56.636Z,1011.05
2023-04-08T02:09:56.636Z,1011.06
2023-04-08T02:10:56.623Z,1011.04
2023-04-08T02:11:56.686Z,1011.06
2023-04-08T02:12:56.610Z,1011.02
2023-04-08T02:13:56.609Z,1011.02
2023-04-08T02:14:56.594Z,1010.99
2023-04-08T02:15:56.627Z,1011.00
2023-04-08T02:16:57.090Z,1010.98
2023-04-08T02:17:56.921Z,1010.96
2023-04-08T02:18:56.793Z,1010.98
2023-04-08T02:19:56.563Z,1010.97
2023-04-08T02:20:56.552Z,1010.99
2023-04-08T02:21:56.582Z,1011.01
2023-04-08T02:22:56.586Z,1011.03
2023-04-08T02:23:56.538Z,1011.01
2023-04-08T02:24:56.542Z,1011.02
2023-04-08T02:25:56.543Z,1010.99
2023-04-08T02:26:56.544Z,1011.05
2023-04-08T02:27:56.510Z,1011.05
2023-04-08T02:28:56.497Z,1011.05
2023-04-08T02:29:56.499Z,1011.03
2023-04-08T02:30:56.521Z,1011.08
2023-04-08T02:31:56.540Z,1011.06
2023-04-08T02:32:56.518Z,1011.10
2023-04-08T02:33:56.467Z,1011.10
2023-04-08T02:34:56.460Z,1011.09
2023-04-08T02:35:56.524Z,1011.11
2023-04-08T02:36:56.471Z,1011.08
2023-04-08T02:37:56.449Z,1011.07
2023-04-08T02:38:56.434Z,1011.12
2023-04-08T02:39:56.436Z,1011.08
2023-04-08T02:40:56.421Z,1011.03
2023-04-08T02:41:56.458Z,1011.06
2023-04-08T02:42:56.424Z,1011.04
2023-04-08T02:43:56.404Z,1011.06
2023-04-08T02:44:56.398Z,1011.07
2023-04-08T02:45:56.416Z,1011.02
2023-04-08T02:46:56.396Z,1011.04
2023-04-08T02:47:56.401Z,1011.09
2023-04-08T02:48:56.419Z,1011.00
2023-04-08T02:49:56.384Z,1011.04
2023-04-08T02:50:56.368Z,1011.06
2023-04-08T02:51:56.392Z,1011.05
2023-04-08T02:52:56.366Z,1011.07
2023-04-08T02:53:56.338Z,1011.12
2023-04-08T02:54:56.329Z,1011.11
2023-04-08T02:55:56.341Z,1011.11
2023-04-08T02:56:56.366Z,1011.15
2023-04-08T02:57:56.318Z,1011.13
2023-04-08T02:58:56.318Z,1011.19
2023-04-08T02:59:56.294Z,1011.18
2023-04-08T03:00:56.315Z,1011.15
2023-04-08T03:01:56.419Z,1011.15
2023-04-08T03:02:56.580Z,1011.20
2023-04-08T03:03:56.285Z,1011.25
2023-04-08T03:04:56.281Z,1011.22
2023-04-08T03:05:56.264Z,1011.20
2023-04-08T03:06:56.382Z,1011.18
2023-04-08T03:07:57.023Z,1011.17
2023-04-08T03:08:56.233Z,1011.16
2023-04-08T03:09:56.235Z,1011.21
2023-04-08T03:10:56.224Z,1011.19
2023-04-08T03:11:56.235Z,1011.19
2023-04-08T03:12:56.231Z,1011.21
2023-04-08T03:13:56.640Z,1011.27
2023-04-08T03:14:56.250Z,1011.19
2023-04-08T03:15:57.053Z,1011.18
2023-04-08T03:16:56.331Z,1011.18
2023-04-08T03:17:56.280Z,1011.17
2023-04-08T03:18:56.271Z,1011.14
2023-04-08T03:19:56.283Z,1011.17
2023-04-08T03:20:56.294Z,1011.14
2023-04-08T03:21:56.398Z,1011.17
2023-04-08T03:22:56.404Z,1011.20
2023-04-08T03:23:56.523Z,1011.18
2023-04-08T03:24:56.420Z,1011.23
2023-04-08T03:25:56.143Z,1011.22
2023-04-08T03:26:56.145Z,1011.26
2023-04-08T03:27:56.141Z,1011.20
2023-04-08T03:28:56.159Z,1011.19
2023-04-08T03:29:56.168Z,1011.16
2023-04-08T03:30:56.264Z,1011.17
2023-04-08T03:31:56.157Z,1011.16
2023-04-08T03:32:56.420Z,1011.15
2023-04-08T03:33:56.394Z,1011.14
2023-04-08T03:34:56.405Z,1011.15
2023-04-08T03:35:56.533Z,1011.20
2023-04-08T03:36:56.066Z,1011.14
2023-04-08T03:37:56.626Z,1011.14
2023-04-08T03:38:56.200Z,1011.13
2023-04-08T03:39:56.643Z,1011.16
2023-04-08T03:40:56.741Z,1011.14
2023-04-08T03:41:56.047Z,1011.14
2023-04-08T03:42:56.015Z,1011.17
2023-04-08T03:43:56.745Z,1011.16
2023-04-08T03:44:56.837Z,1011.14
2023-04-08T03:45:56.359Z,1011.21
2023-04-08T03:46:56.889Z,1011.22
2023-04-08T03:47:56.038Z,1011.20
2023-04-08T03:48:55.971Z,1011.23
2023-04-08T03:49:55.968Z,1011.15
2023-04-08T03:50:55.980Z,1011.20
2023-04-08T03:51:56.095Z,1011.13
2023-04-08T03:52:56.190Z,1011.15
2023-04-08T03:53:55.932Z,1011.23
2023-04-08T03:54:55.937Z,1011.23
2023-04-08T03:55:55.917Z,1011.20
2023-04-08T03:56:55.941Z,1011.21
2023-04-08T03:57:55.905Z,1011.22
2023-04-08T03:58:55.917Z,1011.23
2023-04-08T03:59:55.886Z,1011.24
2023-04-08T04:00:55.896Z,1011.23
2023-04-08T04:01:55.933Z,1011.26
2023-04-08T04:02:55.937Z,1011.22
2023-04-08T04:03:56.431Z,1011.25
2023-04-08T04:04:56.566Z,1011.17
2023-04-08T04:05:56.393Z,1011.17
2023-04-08T04:06:55.873Z,1011.19
2023-04-08T04:07:55.845Z,1011.14
2023-04-08T04:08:55.833Z,1011.17
2023-04-08T04:09:56.630Z,1011.15
2023-04-08T04:10:55.908Z,1011.17
2023-04-08T04:11:55.805Z,1011.23
2023-04-08T04:12:55.842Z,1011.15
2023-04-08T04:13:56.734Z,1011.21
2023-04-08T04:14:55.804Z,1011.18
2023-04-08T04:15:55.835Z,1011.19
2023-04-08T04:16:56.315Z,1011.20
2023-04-08T04:17:56.086Z,1011.24
2023-04-08T04:18:55.803Z,1011.19
2023-04-08T04:19:55.762Z,1011.29
2023-04-08T04:20:55.782Z,1011.27
2023-04-08T04:21:55.781Z,1011.32
2023-04-08T04:22:55.750Z,1011.31
2023-04-08T04:23:55.730Z,1011.34
2023-04-08T04:24:55.923Z,1011.35
2023-04-08T04:25:55.704Z,1011.37
2023-04-08T04:26:55.708Z,1011.32
2023-04-08T04:27:55.721Z,1011.34
2023-04-08T04:28:56.147Z,1011.39
2023-04-08T04:29:56.159Z,1011.35
2023-04-08T04:30:56.673Z,1011.38
2023-04-08T04:31:56.357Z,1011.31
2023-04-08T04:32:55.734Z,1011.33
2023-04-08T04:33:55.671Z,1011.23
2023-04-08T04:34:55.655Z,1011.25
2023-04-08T04:35:55.650Z,1011.33
2023-04-08T04:36:55.843Z,1011.26
2023-04-08T04:37:55.672Z,1011.36
2023-04-08T04:38:55.984Z,1011.29
2023-04-08T04:39:55.615Z,1011.32
2023-04-08T04:40:55.613Z,1011.28
2023-04-08T04:41:55.599Z,1011.39
2023-04-08T04:42:55.620Z,1011.38
2023-04-08T04:43:55.592Z,1011.40
2023-04-08T04:44:55.585Z,1011.34
2023-04-08T04:45:55.656Z,1011.40
2023-04-08T04:46:55.702Z,1011.33
2023-04-08T04:47:55.616Z,1011.37
2023-04-08T04:48:55.748Z,1011.36
2023-04-08T04:49:55.552Z,1011.45
2023-04-08T04:50:55.743Z,1011.42
2023-04-08T04:51:55.751Z,1011.42
2023-04-08T04:52:55.654Z,1011.47
2023-04-08T04:53:55.900Z,1011.48
2023-04-08T04:54:55.520Z,1011.47
2023-04-08T04:55:55.520Z,1011.55
2023-04-08T04:56:55.508Z,1011.54
2023-04-08T04:57:55.529Z,1011.55
2023-04-08T04:58:55.505Z,1011.45
2023-04-08T04:59:55.488Z,1011.42
2023-04-08T05:00:55.578Z,1011.45
2023-04-08T05:01:55.536Z,1011.39
2023-04-08T05:02:55.633Z,1011.40
2023-04-08T05:03:55.484Z,1011.43
2023-04-08T05:04:55.496Z,1011.43
2023-04-08T05:05:55.451Z,1011.47
2023-04-08T05:06:55.545Z,1011.47
2023-04-08T05:07:55.523Z,1011.47
2023-04-08T05:08:55.433Z,1011.50
2023-04-08T05:09:55.485Z,1011.53
2023-04-08T05:10:55.413Z,1011.55
2023-04-08T05:11:55.406Z,1011.55
2023-04-08T05:12:55.446Z,1011.55
2023-04-08T05:13:55.402Z,1011.61
2023-04-08T05:14:55.403Z,1011.55
2023-04-08T05:15:55.426Z,1011.60
2023-04-08T05:16:55.394Z,1011.57
2023-04-08T05:17:55.535Z,1011.70
2023-04-08T05:18:55.396Z,1011.64
2023-04-08T05:19:55.402Z,1011.66
2023-04-08T05:20:55.383Z,1011.64
2023-04-08T05:21:55.369Z,1011.59
2023-04-08T05:22:55.443Z,1011.63
2023-04-08T05:23:55.416Z,1011.64
2023-04-08T05:24:55.342Z,1011.63
2023-04-08T05:25:55.482Z,1011.68
2023-04-08T05:26:55.398Z,1011.62
2023-04-08T05:27:55.317Z,1011.66
2023-04-08T05:28:55.302Z,1011.69
2023-04-08T05:29:55.283Z,1011.67
2023-04-08T05:30:55.282Z,1011.74
2023-04-08T05:31:55.306Z,1011.73
2023-04-08T05:32:56.223Z,1011.72
2023-04-08T05:33:55.274Z,1011.75
2023-04-08T05:34:55.268Z,1011.76
2023-04-08T05:35:55.268Z,1011.73
2023-04-08T05:36:55.253Z,1011.73
2023-04-08T05:37:55.410Z,1011.72
2023-04-08T05:38:55.306Z,1011.74
2023-04-08T05:39:55.274Z,1011.77
2023-04-08T05:40:55.302Z,1011.78
2023-04-08T05:41:55.319Z,1011.80
2023-04-08T05:42:55.319Z,1011.82
2023-04-08T05:43:55.339Z,1011.87
2023-04-08T05:44:55.374Z,1011.85
2023-04-08T05:45:55.359Z,1011.82
2023-04-08T05:46:55.319Z,1011.80
2023-04-08T05:47:55.278Z,1011.86
2023-04-08T05:48:55.170Z,1011.82
2023-04-08T05:49:55.164Z,1011.88
2023-04-08T05:50:55.160Z,1011.89
2023-04-08T05:51:55.340Z,1011.88
2023-04-08T05:52:55.388Z,1011.93
2023-04-08T05:53:55.343Z,1011.93
2023-04-08T05:54:55.130Z,1011.92
2023-04-08T05:55:55.365Z,1011.96
2023-04-08T05:56:55.262Z,1011.96
2023-04-08T05:57:55.372Z,1012.00
2023-04-08T05:58:55.431Z,1012.02
2023-04-08T05:59:55.438Z,1011.99
2023-04-08T06:00:55.458Z,1012.06
2023-04-08T06:01:55.515Z,1012.04
2023-04-08T06:02:55.487Z,1012.03
2023-04-08T06:03:55.530Z,1011.96
2023-04-08T06:04:55.286Z,1011.93
2023-04-08T06:05:55.059Z,1011.96
2023-04-08T06:06:55.062Z,1011.99
2023-04-08T06:07:55.316Z,1012.03
2023-04-08T06:08:55.059Z,1012.06
2023-04-08T06:09:55.516Z,1012.05
2023-04-08T06:10:55.313Z,1012.10
2023-04-08T06:11:55.308Z,1012.06
2023-04-08T06:12:55.070Z,1012.12
2023-04-08T06:13:55.473Z,1012.06
2023-04-08T06:14:55.324Z,1012.08
2023-04-08T06:15:55.315Z,1012.12
2023-04-08T06:16:55.302Z,1012.15
2023-04-08T06:17:55.367Z,1012.13
2023-04-08T06:18:55.384Z,1012.06
2023-04-08T06:19:55.317Z,1012.08
2023-04-08T06:20:55.005Z,1012.13
2023-04-08T06:21:55.089Z,1012.09
2023-04-08T06:22:55.087Z,1012.13
2023-04-08T06:23:55.088Z,1012.15
2023-04-08T06:24:55.095Z,1012.16
2023-04-08T06:25:54.900Z,1012.25
2023-04-08T06:26:55.214Z,1012.26
2023-04-08T06:27:55.379Z,1012.25
2023-04-08T06:28:55.445Z,1012.19
2023-04-08T06:29:55.421Z,1012.27
2023-04-08T06:30:55.431Z,1012.28
2023-04-08T06:31:54.884Z,1012.32
2023-04-08T06:32:54.929Z,1012.35
2023-04-08T06:33:54.848Z,1012.36
2023-04-08T06:34:54.843Z,1012.34
2023-04-08T06:35:54.895Z,1012.38
2023-04-08T06:36:54.846Z,1012.34
2023-04-08T06:37:55.295Z,1012.42
2023-04-08T06:38:54.833Z,1012.41
2023-04-08T06:39:54.840Z,1012.38
2023-04-08T06:40:54.813Z,1012.43
2023-04-08T06:41:54.805Z,1012.42
2023-04-08T06:42:54.807Z,1012.47
2023-04-08T06:43:54.777Z,1012.43
2023-04-08T06:44:54.780Z,1012.45
2023-04-08T06:45:54.785Z,1012.44
2023-04-08T06:46:54.775Z,1012.40
2023-04-08T06:47:54.800Z,1012.39
2023-04-08T06:48:54.754Z,1012.45
2023-04-08T06:49:54.750Z,1012.49
2023-04-08T06:50:54.743Z,1012.52
2023-04-08T06:51:54.740Z,1012.51
2023-04-08T06:52:54.744Z,1012.48
2023-04-08T06:53:55.175Z,1012.52
2023-04-08T06:54:54.710Z,1012.49
2023-04-08T06:55:54.696Z,1012.52
2023-04-08T06:56:54.701Z,1012.56
2023-04-08T06:57:54.699Z,1012.55
2023-04-08T06:58:54.713Z,1012.51
2023-04-08T06:59:54.677Z,1012.46
2023-04-08T07:00:54.684Z,1012.47
2023-04-08T07:01:54.773Z,1012.47
2023-04-08T07:02:54.817Z,1012.45
2023-04-08T07:03:54.836Z,1012.48
2023-04-08T07:04:54.637Z,1012.44
2023-04-08T07:05:54.778Z,1012.44
2023-04-08T07:06:54.862Z,1012.49
2023-04-08T07:07:54.629Z,1012.46
2023-04-08T07:08:54.610Z,1012.55
2023-04-08T07:09:54.603Z,1012.57
2023-04-08T07:10:54.610Z,1012.51
2023-04-08T07:11:54.589Z,1012.54
2023-04-08T07:12:54.602Z,1012.56
2023-04-08T07:13:55.365Z,1012.51
2023-04-08T07:14:54.572Z,1012.60
2023-04-08T07:15:54.562Z,1012.61
2023-04-08T07:16:54.625Z,1012.58
2023-04-08T07:17:54.569Z,1012.62
2023-04-08T07:18:54.551Z,1012.60
2023-04-08T07:19:54.552Z,1012.62
2023-04-08T07:20:54.554Z,1012.66
2023-04-08T07:21:54.517Z,1012.73
2023-04-08T07:22:54.613Z,1012.70
2023-04-08T07:23:55.473Z,1012.68
2023-04-08T07:24:55.133Z,1012.76
2023-04-08T07:25:54.487Z,1012.75
2023-04-08T07:26:55.273Z,1012.75
2023-04-08T07:27:54.523Z,1012.71
2023-04-08T07:28:54.484Z,1012.69
2023-04-08T07:29:55.419Z,1012.72
2023-04-08T07:30:54.507Z,1012.75
2023-04-08T07:31:54.535Z,1012.70
2023-04-08T07:32:54.498Z,1012.73
2023-04-08T07:33:54.443Z,1012.76
2023-04-08T07:34:54.442Z,1012.76
2023-04-08T07:35:54.551Z,1012.77
2023-04-08T07:36:54.431Z,1012.82
2023-04-08T07:37:54.778Z,1012.79
2023-04-08T07:38:54.786Z,1012.79
2023-04-08T07:39:55.851Z,1012.82
2023-04-08T07:40:55.004Z,1012.84
2023-04-08T07:41:54.388Z,1012.82
2023-04-08T07:42:54.414Z,1012.80
2023-04-08T07:43:55.049Z,1012.83
2023-04-08T07:44:55.328Z,1012.85
2023-04-08T07:45:54.504Z,1012.89
2023-04-08T07:46:54.356Z,1012.86
2023-04-08T07:47:54.450Z,1012.84
2023-04-08T07:48:55.160Z,1012.88
2023-04-08T07:49:54.433Z,1012.93
2023-04-08T07:51:09.899Z,1012.94
2023-04-08T07:51:54.480Z,1012.90
2023-04-08T07:52:54.316Z,1012.96
2023-04-08T07:53:54.514Z,1012.96
2023-04-08T07:54:54.507Z,1013.00
2023-04-08T07:55:54.317Z,1013.02
2023-04-08T07:56:54.284Z,1013.03
2023-04-08T07:57:54.300Z,1013.02
2023-04-08T07:58:54.571Z,1013.10
2023-04-08T07:59:54.278Z,1013.08
2023-04-08T08:00:54.257Z,1013.07
2023-04-08T08:01:54.995Z,1013.10
2023-04-08T08:02:54.387Z,1013.08
2023-04-08T08:03:54.616Z,1013.10
2023-04-08T08:04:54.286Z,1013.12
2023-04-08T08:05:55.015Z,1013.18
2023-04-08T08:06:54.212Z,1013.18
2023-04-08T08:07:54.260Z,1013.18
2023-04-08T08:08:54.380Z,1013.17
2023-04-08T08:09:54.391Z,1013.13
2023-04-08T08:10:54.199Z,1013.09
2023-04-08T08:11:54.183Z,1013.14
2023-04-08T08:12:54.405Z,1013.14
2023-04-08T08:13:54.632Z,1013.06
2023-04-08T08:14:54.628Z,1013.04
2023-04-08T08:15:54.656Z,1013.01
2023-04-08T08:16:54.440Z,1013.01
2023-04-08T08:17:54.847Z,1013.01
2023-04-08T08:18:54.860Z,1013.05
2023-04-08T08:19:54.821Z,1013.04
2023-04-08T08:20:54.468Z,1013.07
2023-04-08T08:21:54.678Z,1013.09
2023-04-08T08:22:57.531Z,1013.01
2023-04-08T08:23:55.098Z,1013.03
2023-04-08T08:24:54.694Z,1013.05
2023-04-08T08:25:54.282Z,1013.04
2023-04-08T08:26:54.079Z,1013.03
2023-04-08T08:27:54.708Z,1013.02
2023-04-08T08:28:54.097Z,1013.08
2023-04-08T08:29:54.065Z,1013.05
2023-04-08T08:30:54.122Z,1013.05
2023-04-08T08:31:54.742Z,1013.08
2023-04-08T08:32:54.099Z,1013.04
2023-04-08T08:33:54.944Z,1013.05
2023-04-08T08:34:54.811Z,1013.02
2023-04-08T08:35:54.812Z,1013.05
2023-04-08T08:36:54.360Z,1013.05
2023-04-08T08:37:54.910Z,1013.06
2023-04-08T08:38:54.398Z,1013.04
2023-04-08T08:39:54.196Z,1013.08
2023-04-08T08:40:53.984Z,1013.03
2023-04-08T08:41:54.017Z,1013.06
2023-04-08T08:42:54.020Z,1013.11
2023-04-08T08:43:54.009Z,1013.13
2023-04-08T08:44:54.213Z,1013.14
2023-04-08T08:45:54.260Z,1013.15
2023-04-08T08:46:54.118Z,1013.17
2023-04-08T08:47:54.282Z,1013.17
2023-04-08T08:48:54.238Z,1013.18
2023-04-08T08:49:54.471Z,1013.17
2023-04-08T08:50:54.042Z,1013.17
2023-04-08T08:51:53.959Z,1013.17
2023-04-08T08:52:54.063Z,1013.17
2023-04-08T08:53:54.329Z,1013.21
2023-04-08T08:54:54.068Z,1013.19
2023-04-08T08:56:16.413Z,1013.22
2023-04-08T08:56:54.076Z,1013.22
2023-04-08T08:57:53.999Z,1013.31
2023-04-08T08:58:54.094Z,1013.29
2023-04-08T08:59:54.101Z,1013.28
2023-04-08T09:00:54.127Z,1013.31
2023-04-08T09:01:54.179Z,1013.38
2023-04-08T09:02:54.090Z,1013.39
2023-04-08T09:03:54.658Z,1013.43
2023-04-08T09:04:54.292Z,1013.39
2023-04-08T09:05:54.167Z,1013.41
2023-04-08T09:06:54.152Z,1013.44
2023-04-08T09:07:54.153Z,1013.38
2023-04-08T09:08:54.156Z,1013.41
2023-04-08T09:09:53.791Z,1013.45
2023-04-08T09:10:53.764Z,1013.42
2023-04-08T09:11:53.791Z,1013.42
2023-04-08T09:12:53.792Z,1013.45
2023-04-08T09:13:54.233Z,1013.51
2023-04-08T09:14:53.788Z,1013.48
2023-04-08T09:15:53.838Z,1013.45
2023-04-08T09:16:53.955Z,1013.40
2023-04-08T09:17:53.841Z,1013.42
2023-04-08T09:18:53.836Z,1013.43
2023-04-08T09:19:53.822Z,1013.42
2023-04-08T09:20:53.890Z,1013.48
2023-04-08T09:21:53.694Z,1013.37
2023-04-08T09:22:53.872Z,1013.47
2023-04-08T09:23:54.142Z,1013.44
2023-04-08T09:24:53.876Z,1013.47
2023-04-08T09:25:53.663Z,1013.38
2023-04-08T09:26:53.888Z,1013.46
2023-04-08T09:27:54.079Z,1013.42
2023-04-08T09:28:54.111Z,1013.47
2023-04-08T09:29:53.637Z,1013.40
2023-04-08T09:30:53.625Z,1013.44
2023-04-08T09:31:53.994Z,1013.47
2023-04-08T09:32:53.893Z,1013.43
2023-04-08T09:33:54.123Z,1013.44
2023-04-08T09:34:53.720Z,1013.45
2023-04-08T09:35:53.778Z,1013.41
2023-04-08T09:36:53.643Z,1013.45
2023-04-08T09:37:53.650Z,1013.50
2023-04-08T09:38:53.777Z,1013.52
2023-04-08T09:39:53.975Z,1013.48
2023-04-08T09:40:53.796Z,1013.49
2023-04-08T09:41:53.570Z,1013.49
2023-04-08T09:42:53.586Z,1013.45
2023-04-08T09:43:53.732Z,1013.53
2023-04-08T09:44:53.538Z,1013.53
2023-04-08T09:45:53.639Z,1013.54
2023-04-08T09:46:53.623Z,1013.51
2023-04-08T09:47:53.870Z,1013.53
2023-04-08T09:48:53.816Z,1013.57
2023-04-08T09:49:53.501Z,1013.56
2023-04-08T09:50:53.614Z,1013.56
2023-04-08T09:51:53.510Z,1013.60
2023-04-08T09:52:53.844Z,1013.56
2023-04-08T09:53:53.850Z,1013.58
2023-04-08T09:54:53.486Z,1013.63
2023-04-08T09:55:53.478Z,1013.62
2023-04-08T09:56:53.655Z,1013.57
2023-04-08T09:57:53.702Z,1013.62
2023-04-08T09:58:53.707Z,1013.59
2023-04-08T09:59:53.723Z,1013.53
2023-04-08T10:00:53.712Z,1013.57
2023-04-08T10:01:53.913Z,1013.60
2023-04-08T10:02:53.664Z,1013.63
2023-04-08T10:03:53.847Z,1013.57
2023-04-08T10:04:53.597Z,1013.61
2023-04-08T10:05:53.922Z,1013.58
2023-04-08T10:06:53.429Z,1013.65
2023-04-08T10:07:53.728Z,1013.53
2023-04-08T10:08:54.147Z,1013.57
2023-04-08T10:09:53.537Z,1013.53
2023-04-08T10:10:53.377Z,1013.42
2023-04-08T10:11:54.242Z,1013.40
2023-04-08T10:12:53.744Z,1013.44
2023-04-08T10:13:53.493Z,1013.31
2023-04-08T10:14:53.360Z,1013.36
2023-04-08T10:15:54.374Z,1013.40
2023-04-08T10:16:54.327Z,1013.42
2023-04-08T10:17:53.489Z,1013.45
2023-04-08T10:18:53.386Z,1013.38
2023-04-08T10:19:53.514Z,1013.36
2023-04-08T10:20:54.142Z,1013.35
2023-04-08T10:21:53.825Z,1013.37
2023-04-08T10:22:54.207Z,1013.35
2023-04-08T10:23:54.243Z,1013.37
2023-04-08T10:24:53.274Z,1013.40
2023-04-08T10:25:53.284Z,1013.37
2023-04-08T10:26:53.265Z,1013.40
2023-04-08T10:27:53.268Z,1013.35
2023-04-08T10:28:53.318Z,1013.32
2023-04-08T10:29:53.269Z,1013.37
2023-04-08T10:30:53.260Z,1013.40
2023-04-08T10:31:53.327Z,1013.33
2023-04-08T10:32:53.238Z,1013.32
2023-04-08T10:33:53.283Z,1013.32
2023-04-08T10:34:53.342Z,1013.31
2023-04-08T10:35:53.382Z,1013.39
2023-04-08T10:36:53.189Z,1013.36
2023-04-08T10:37:53.323Z,1013.43
2023-04-08T10:38:53.517Z,1013.43
2023-04-08T10:39:53.164Z,1013.39
2023-04-08T10:40:53.152Z,1013.39
2023-04-08T10:41:53.541Z,1013.38
2023-04-08T10:42:53.598Z,1013.38
2023-04-08T10:43:53.432Z,1013.40
2023-04-08T10:44:53.819Z,1013.43
2023-04-08T10:45:53.240Z,1013.43
2023-04-08T10:46:53.214Z,1013.35
2023-04-08T10:47:53.278Z,1013.38
2023-04-08T10:48:53.091Z,1013.36
2023-04-08T10:49:53.080Z,1013.35
2023-04-08T10:50:53.115Z,1013.41
2023-04-08T10:51:53.089Z,1013.37
2023-04-08T10:52:53.112Z,1013.28
2023-04-08T10:53:53.250Z,1013.33
2023-04-08T10:54:53.032Z,1013.30
2023-04-08T10:55:53.155Z,1013.33
2023-04-08T10:56:53.164Z,1013.32
2023-04-08T10:57:53.184Z,1013.31
2023-04-08T10:58:53.217Z,1013.30
2023-04-08T10:59:53.018Z,1013.31
2023-04-08T11:00:53.088Z,1013.31
2023-04-08T11:01:53.192Z,1013.30
2023-04-08T11:02:53.273Z,1013.31
2023-04-08T11:03:53.589Z,1013.33
2023-04-08T11:04:53.075Z,1013.31
2023-04-08T11:05:53.289Z,1013.28
2023-04-08T11:06:53.201Z,1013.31
2023-04-08T11:07:53.328Z,1013.35
2023-04-08T11:08:52.935Z,1013.31
2023-04-08T11:09:52.966Z,1013.30
2023-04-08T11:10:53.119Z,1013.37
2023-04-08T11:11:53.147Z,1013.41
2023-04-08T11:12:53.126Z,1013.41
2023-04-08T11:13:54.005Z,1013.38
2023-04-08T11:14:52.887Z,1013.41
2023-04-08T11:15:53.062Z,1013.46
2023-04-08T11:16:53.409Z,1013.48
2023-04-08T11:17:52.914Z,1013.45
2023-04-08T11:18:52.858Z,1013.46
2023-04-08T11:19:53.175Z,1013.40
2023-04-08T11:20:53.182Z,1013.53
2023-04-08T11:21:53.401Z,1013.52
2023-04-08T11:22:53.520Z,1013.58
2023-04-08T11:23:53.590Z,1013.56
2023-04-08T11:24:53.527Z,1013.58
2023-04-08T11:25:52.846Z,1013.52
2023-04-08T11:26:52.891Z,1013.53
2023-04-08T11:27:52.801Z,1013.56
2023-04-08T11:28:52.827Z,1013.52
2023-04-08T11:29:53.057Z,1013.48
2023-04-08T11:30:53.103Z,1013.57
2023-04-08T11:31:53.067Z,1013.55
2023-04-08T11:32:53.190Z,1013.52
2023-04-08T11:33:53.376Z,1013.52
2023-04-08T11:34:53.289Z,1013.55
2023-04-08T11:35:53.316Z,1013.52
2023-04-08T11:36:53.078Z,1013.56
2023-04-08T11:37:53.085Z,1013.52
2023-04-08T11:38:52.766Z,1013.51
2023-04-08T11:39:53.539Z,1013.56
2023-04-08T11:40:53.521Z,1013.54
2023-04-08T11:41:53.551Z,1013.50
2023-04-08T11:42:52.786Z,1013.44
2023-04-08T11:43:52.898Z,1013.49
2023-04-08T11:44:52.729Z,1013.47
2023-04-08T11:45:52.746Z,1013.48
2023-04-08T11:46:52.855Z,1013.52
2023-04-08T11:47:52.901Z,1013.45
2023-04-08T11:48:52.753Z,1013.51
2023-04-08T11:49:52.675Z,1013.48
2023-04-08T11:50:52.830Z,1013.49
2023-04-08T11:51:52.775Z,1013.56
2023-04-08T11:52:53.022Z,1013.51
2023-04-08T11:53:55.937Z,1013.48
2023-04-08T11:54:53.228Z,1013.47
2023-04-08T11:55:53.070Z,1013.42
2023-04-08T11:56:53.287Z,1013.46
2023-04-08T11:57:53.424Z,1013.40
2023-04-08T11:58:53.434Z,1013.38
2023-04-08T11:59:53.228Z,1013.40
2023-04-08T12:00:52.623Z,1013.40
2023-04-08T12:01:53.437Z,1013.37
2023-04-08T12:02:52.765Z,1013.34
2023-04-08T12:03:53.750Z,1013.33
2023-04-08T12:04:52.705Z,1013.36
2023-04-08T12:05:53.473Z,1013.34